Time;durP1;ratioP1;P1;durP2;ratioP2;P2;SDS_P1;SDS_P2;PMS_P1;PMS_P2;Temp;Humidity;BMP_temperature;BMP_pressure;BME280_temperature;BME280_humidity;BME280_pressure;Samples;Min_cycle;Max_cycle;Signal;HPM_P1;HPM_P2
2022/04/13 00:00:09;;;;;;;;;2.67;2.00;;;;;32.90;22.90;100748.88;5015569;28;45476;-81
2022/04/13 00:02:35;;;;;;;;;2.33;2.00;;;;;32.66;22.85;100752.47;5015904;28;45399;-82
2022/04/13 00:05:00;;;;;;;;;1.67;1.67;;;;;32.26;23.17;100739.78;5013608;28;48264;-81
2022/04/13 00:07:25;;;;;;;;;4.67;3.33;;;;;32.12;23.52;100749.00;5015811;28;45447;-81
2022/04/13 00:09:51;;;;;;;;;2.00;1.25;;;;;32.34;23.24;100761.19;5015715;28;45539;-81
2022/04/13 00:12:16;;;;;;;;;2.00;0.00;;;;;32.01;23.17;100685.78;5014322;28;45582;-81
2022/04/13 00:14:41;;;;;;;;;0.00;0.00;;;;;32.81;22.72;100803.56;5015456;28;45484;-82
2022/04/13 00:17:07;;;;;;;;;2.00;2.00;;;;;32.44;22.73;100723.81;5015437;28;45400;-81
2022/04/13 00:19:33;;;;;;;;;2.33;2.33;;;;;32.91;22.90;100792.75;5015699;28;45506;-81
2022/04/13 00:21:58;;;;;;;;;2.00;2.00;;;;;33.00;23.06;100808.53;5015536;28;45422;-81
2022/04/13 00:24:24;;;;;;;;;5.00;2.00;;;;;32.65;23.44;100797.41;5015273;28;46320;-81
2022/04/13 00:26:50;;;;;;;;;5.33;2.00;;;;;32.37;23.19;100788.41;5015390;28;45360;-82
2022/04/13 00:29:15;;;;;;;;;4.00;2.00;;;;;32.45;24.11;100815.34;5014206;28;45273;-82
2022/04/13 00:31:40;;;;;;;;;4.00;1.00;;;;;32.08;24.32;100782.25;5015494;28;45342;-82
2022/04/13 00:34:06;;;;;;;;;3.00;3.00;;;;;32.32;24.18;100793.34;5013589;28;46917;-82
2022/04/13 00:36:31;;;;;;;;;3.00;3.00;;;;;32.12;24.21;100754.50;5015396;28;45375;-82
2022/04/13 00:38:56;;;;;;;;;2.67;2.67;;;;;32.17;23.85;100731.31;5015443;28;45832;-82
2022/04/13 00:41:22;;;;;;;;;3.00;3.00;;;;;32.45;24.10;100752.19;5015273;28;45421;-81
2022/04/13 00:44:08;;;;;;;;;3.67;2.00;;;;;32.67;23.84;100784.41;5013798;28;47862;-81
2022/04/13 00:46:34;;;;;;;;;4.00;2.00;;;;;32.71;24.09;100774.97;5017180;28;45427;-81
2022/04/13 00:49:00;;;;;;;;;2.67;2.67;;;;;33.04;24.01;100814.69;5018646;28;45418;-81
2022/04/13 00:51:27;;;;;;;;;1.67;1.67;;;;;32.73;23.96;100763.88;5018870;28;45371;-82
2022/04/13 00:53:54;;;;;;;;;2.67;1.33;;;;;33.08;23.73;100790.59;5017142;28;46412;-82
2022/04/13 00:56:24;;;;;;;;;4.00;2.00;;;;;32.86;23.85;100758.38;5017337;28;45313;-81
2022/04/13 00:58:54;;;;;;;;;2.33;2.33;;;;;32.91;24.05;100739.63;5019023;28;45442;-82
2022/04/13 01:01:24;;;;;;;;;3.00;3.00;;;;;32.92;23.60;100724.91;5018479;28;45384;-82
2022/04/13 01:03:52;;;;;;;;;4.00;2.00;;;;;33.00;23.21;100747.22;5006495;28;45379;-82
2022/04/13 01:06:19;;;;;;;;;4.33;3.00;;;;;33.62;23.93;100800.25;4998515;28;45425;-82
2022/04/13 01:08:49;;;;;;;;;2.00;2.00;;;;;33.39;23.41;100760.78;5014094;28;45280;-82
2022/04/13 01:11:15;;;;;;;;;3.00;3.00;;;;;33.78;23.30;100791.72;5013882;28;45565;-82
2022/04/13 01:13:40;;;;;;;;;2.33;2.00;;;;;33.57;23.20;100751.09;5013682;28;47353;-82
2022/04/13 01:16:07;;;;;;;;;3.00;3.00;;;;;33.31;23.23;100751.25;4997056;28;45637;-82
2022/04/13 01:18:33;;;;;;;;;1.00;1.00;;;;;33.89;23.29;100805.50;4998361;28;45536;-82
2022/04/13 01:20:58;;;;;;;;;5.00;3.67;;;;;33.85;22.90;100777.38;4998642;28;45480;-82
2022/04/13 01:23:24;;;;;;;;;2.67;2.67;;;;;34.06;22.93;100809.66;4998559;28;45477;-82
2022/04/13 01:25:51;;;;;;;;;3.00;2.67;;;;;34.03;22.80;100815.41;4979236;28;45366;-82
2022/04/13 01:28:16;;;;;;;;;2.67;2.00;;;;;33.83;22.93;100761.97;4978748;28;45459;-82
2022/04/13 01:30:42;;;;;;;;;3.00;3.00;;;;;33.90;23.02;100757.72;4960968;28;45378;-83
2022/04/13 01:33:07;;;;;;;;;2.33;2.00;;;;;34.02;22.73;100777.88;4976614;28;48031;-82
2022/04/13 01:35:33;;;;;;;;;1.75;1.75;;;;;33.78;22.49;100753.19;4978778;28;45378;-82
2022/04/13 01:37:59;;;;;;;;;2.00;2.00;;;;;33.34;23.01;100715.25;4978639;28;45355;-82
2022/04/13 01:40:25;;;;;;;;;2.00;2.00;;;;;33.42;23.44;100796.28;4978310;28;45503;-82
2022/04/13 01:42:50;;;;;;;;;3.00;2.00;;;;;33.36;23.46;100791.28;4978550;28;46495;-82
2022/04/13 01:45:19;;;;;;;;;2.00;2.00;;;;;33.38;23.57;100817.66;4976771;28;45739;-82
2022/04/13 01:47:52;;;;;;;;;2.00;1.67;;;;;33.00;23.71;100791.19;4960563;28;45446;-81
2022/04/13 01:50:19;;;;;;;;;3.00;3.00;;;;;32.78;24.03;100791.91;4978164;28;45454;-82
2022/04/13 01:52:48;;;;;;;;;3.00;2.00;;;;;32.58;24.01;100771.38;4978179;28;46565;-82
2022/04/13 01:55:14;;;;;;;;;1.33;1.33;;;;;32.97;24.54;100817.00;4978022;28;45467;-82
2022/04/13 01:57:41;;;;;;;;;3.00;2.00;;;;;33.03;24.26;100834.03;4978123;28;45320;-81
2022/04/13 02:00:09;;;;;;;;;4.67;3.00;;;;;32.95;24.35;100831.84;4977895;28;45502;-82
2022/04/13 02:02:35;;;;;;;;;1.00;1.00;;;;;33.09;23.86;100839.94;4977870;28;49414;-82
2022/04/13 02:05:01;;;;;;;;;3.00;2.00;;;;;32.91;24.04;100786.34;4980069;28;45405;-82
2022/04/13 02:07:27;;;;;;;;;2.00;2.00;;;;;33.22;23.59;100795.03;4997636;28;45372;-82
2022/04/13 02:09:54;;;;;;;;;3.00;3.00;;;;;33.41;23.91;100839.41;4997736;28;45255;-82
2022/04/13 02:12:20;;;;;;;;;2.67;2.00;;;;;32.88;23.84;100792.09;4997296;28;45413;-82
2022/04/13 02:14:45;;;;;;;;;5.33;4.00;;;;;32.64;24.15;100773.66;4979591;28;45374;-82
2022/04/13 02:17:14;;;;;;;;;3.67;2.00;;;;;32.71;24.64;100820.81;4997590;28;45401;-82
2022/04/13 02:19:41;;;;;;;;;2.00;2.00;;;;;32.54;24.48;100811.03;4979926;28;46110;-82
2022/04/13 02:22:08;;;;;;;;;2.00;1.67;;;;;32.41;25.01;100809.19;4979765;28;46558;-81
2022/04/13 02:24:37;;;;;;;;;2.00;2.00;;;;;32.37;24.95;100826.84;4993524;28;45480;-81
2022/04/13 02:27:03;;;;;;;;;2.00;2.00;;;;;32.03;24.82;100777.09;5017473;28;45428;-81
2022/04/13 02:29:28;;;;;;;;;2.00;2.00;;;;;31.78;25.04;100732.19;5015504;28;45378;-82
2022/04/13 02:31:54;;;;;;;;;6.00;3.00;;;;;32.10;25.51;100802.25;5017169;28;45341;-82
2022/04/13 02:34:19;;;;;;;;;3.00;3.00;;;;;31.74;25.64;100782.75;5015856;28;45373;-82
2022/04/13 02:36:44;;;;;;;;;3.00;3.00;;;;;31.97;25.65;100826.94;5016272;28;45482;-81
2022/04/13 02:39:12;;;;;;;;;2.00;2.00;;;;;32.08;25.60;100810.59;5015785;28;45366;-82
2022/04/13 02:41:39;;;;;;;;;2.00;2.00;;;;;32.36;25.44;100832.47;5016890;28;45558;-82
2022/04/13 02:44:05;;;;;;;;;4.00;3.00;;;;;32.39;25.14;100846.88;5016537;28;45499;-82
2022/04/13 02:46:30;;;;;;;;;3.67;3.00;;;;;32.42;24.75;100832.00;5016839;28;45499;-82
2022/04/13 02:48:55;;;;;;;;;2.00;2.00;;;;;32.19;24.89;100792.50;5017117;28;45581;-82
2022/04/13 02:51:21;;;;;;;;;2.00;2.00;;;;;32.44;25.22;100830.91;5015165;28;46889;-82
2022/04/13 02:53:46;;;;;;;;;3.00;3.00;;;;;31.96;25.39;100784.00;5015654;28;45843;-82
2022/04/13 02:56:12;;;;;;;;;3.00;3.00;;;;;31.94;25.14;100775.00;5015477;28;45419;-82
2022/04/13 02:58:37;;;;;;;;;4.00;3.00;;;;;32.43;24.97;100820.94;5016462;28;45582;-81
2022/04/13 03:01:03;;;;;;;;;4.33;3.00;;;;;32.67;25.05;100842.09;5016799;28;45476;-81
2022/04/13 03:03:29;;;;;;;;;3.33;3.33;;;;;32.49;25.15;100823.22;5015288;28;45473;-83
2022/04/13 03:05:54;;;;;;;;;8.00;5.00;;;;;32.58;25.16;100826.31;5016894;28;45442;-82
2022/04/13 03:08:20;;;;;;;;;3.33;3.33;;;;;32.62;24.62;100825.09;5015607;28;45531;-82
2022/04/13 03:10:46;;;;;;;;;3.00;3.00;;;;;32.42;24.95;100788.06;5016565;28;45324;-82
2022/04/13 03:13:11;;;;;;;;;2.67;2.67;;;;;32.41;24.95;100805.56;5016251;28;45467;-82
2022/04/13 03:15:36;;;;;;;;;5.00;4.00;;;;;32.58;24.73;100846.41;5016452;28;45215;-82
2022/04/13 03:18:02;;;;;;;;;5.00;3.00;;;;;32.32;24.99;100818.97;5016664;28;45177;-82
2022/04/13 03:20:27;;;;;;;;;3.33;3.33;;;;;32.14;25.26;100829.38;5016416;28;45361;-82
2022/04/13 03:22:53;;;;;;;;;6.00;4.00;;;;;32.20;25.11;100843.66;5015155;28;46583;-82
2022/04/13 03:25:18;;;;;;;;;5.33;4.33;;;;;31.86;25.82;100835.91;5015017;28;45405;-82
2022/04/13 03:27:44;;;;;;;;;2.00;2.00;;;;;32.19;26.02;100883.06;5016005;28;45426;-82
2022/04/13 03:30:13;;;;;;;;;3.67;3.67;;;;;32.10;25.93;100876.34;5016345;28;46657;-82
2022/04/13 03:32:39;;;;;;;;;6.00;5.00;;;;;31.67;26.50;100813.47;5016216;28;45332;-82
2022/04/13 03:35:06;;;;;;;;;4.33;4.00;;;;;31.71;26.64;100829.59;5016579;28;45497;-82
2022/04/13 03:37:31;;;;;;;;;5.33;4.33;;;;;31.97;26.93;100898.28;5014972;28;45232;-82
2022/04/13 03:39:56;;;;;;;;;5.00;3.00;;;;;32.05;27.32;100901.34;5014930;28;48090;-82
2022/04/13 03:42:22;;;;;;;;;6.00;5.00;;;;;31.69;27.20;100845.31;5015676;28;45240;-82
2022/04/13 03:44:47;;;;;;;;;4.00;4.00;;;;;32.00;26.97;100887.06;5014753;28;45251;-82
2022/04/13 03:47:12;;;;;;;;;3.00;3.00;;;;;32.29;27.26;100890.56;5016093;28;45495;-82
2022/04/13 03:49:37;;;;;;;;;2.67;2.67;;;;;32.34;26.86;100838.06;5015893;28;46325;-82
2022/04/13 03:52:03;;;;;;;;;3.00;2.00;;;;;32.37;26.22;100843.31;5014857;28;45562;-82
2022/04/13 03:54:29;;;;;;;;;5.67;4.00;;;;;32.61;26.91;100881.00;5014480;28;45586;-82
2022/04/13 03:56:54;;;;;;;;;11.00;10.33;;;;;32.27;26.78;100825.78;5015547;28;45496;-82
2022/04/13 03:59:21;;;;;;;;;7.00;5.00;;;;;32.56;26.31;100851.13;5015475;28;46034;-82
2022/04/13 04:01:47;;;;;;;;;6.33;6.33;;;;;33.13;25.83;100884.59;5015965;28;45415;-82
2022/04/13 04:04:12;;;;;;;;;5.00;5.00;;;;;32.78;26.76;100855.09;5015634;28;45292;-82
2022/04/13 04:06:37;;;;;;;;;5.33;5.00;;;;;32.47;27.13;100854.53;5015912;28;45423;-82
2022/04/13 04:09:03;;;;;;;;;9.00;7.00;;;;;32.67;26.81;100897.03;5014404;28;47236;-82
2022/04/13 04:11:29;;;;;;;;;5.33;5.00;;;;;32.58;26.61;100856.50;5015294;28;45430;-82
2022/04/13 04:13:55;;;;;;;;;5.67;5.67;;;;;32.87;26.92;100850.78;5015759;28;45453;-82
2022/04/13 04:16:20;;;;;;;;;4.67;4.67;;;;;33.03;26.43;100859.66;5014454;28;45535;-82
2022/04/13 04:18:48;;;;;;;;;6.00;4.33;;;;;32.77;26.98;100848.72;5014195;28;47319;-82
2022/04/13 04:21:14;;;;;;;;;5.00;5.00;;;;;33.08;26.54;100873.03;5013866;28;45371;-82
2022/04/13 04:23:39;;;;;;;;;6.00;5.00;;;;;32.74;26.68;100846.22;5013986;28;45431;-82
2022/04/13 04:26:04;;;;;;;;;7.00;7.00;;;;;32.50;27.28;100859.78;5013932;28;48593;-82
2022/04/13 04:28:30;;;;;;;;;6.00;6.00;;;;;32.53;27.36;100902.66;5015217;28;46146;-82
2022/04/13 04:30:55;;;;;;;;;6.67;5.00;;;;;32.58;27.20;100883.97;5015987;28;45545;-87
2022/04/13 04:33:23;;;;;;;;;4.00;4.00;;;;;32.74;26.57;100901.16;5014584;28;45426;-86
2022/04/13 04:35:49;;;;;;;;;7.33;6.33;;;;;32.27;27.02;100828.50;5014999;28;45422;-87
2022/04/13 04:38:14;;;;;;;;;5.67;5.67;;;;;32.60;26.72;100885.63;5014655;28;47575;-87
2022/04/13 04:40:40;;;;;;;;;7.33;6.00;;;;;32.41;27.15;100865.97;5014506;28;45453;-87
2022/04/13 04:43:05;;;;;;;;;7.00;6.00;;;;;32.26;27.36;100912.72;5014887;28;45289;-87
2022/04/13 04:45:30;;;;;;;;;6.00;6.00;;;;;32.31;27.62;100921.53;5014668;28;45326;-83
2022/04/13 04:47:57;;;;;;;;;5.67;5.67;;;;;32.46;27.49;100897.59;5014191;28;46829;-92
2022/04/13 04:50:23;;;;;;;;;8.33;7.00;;;;;32.84;27.03;100893.09;5014748;28;45337;-88
2022/04/13 04:52:49;;;;;;;;;8.33;8.33;;;;;32.85;26.45;100845.41;5022995;28;45455;-88
2022/04/13 04:55:17;;;;;;;;;8.00;6.67;;;;;33.05;26.43;100951.09;5033989;28;45505;-86
2022/04/13 04:57:44;;;;;;;;;8.00;7.00;;;;;32.58;26.71;100873.84;5034086;28;46248;-86
2022/04/13 05:00:12;;;;;;;;;8.00;8.00;;;;;32.56;27.63;100913.41;5033057;28;46185;-82
2022/04/13 05:02:39;;;;;;;;;8.67;6.67;;;;;32.51;27.51;100921.13;5034365;28;45411;-87
2022/04/13 05:05:06;;;;;;;;;7.67;5.33;;;;;32.66;27.72;100962.09;5022240;28;45434;-85
2022/04/13 05:07:32;;;;;;;;;9.67;6.00;;;;;32.07;27.63;100828.03;5015512;28;46155;-85
2022/04/13 05:09:58;;;;;;;;;6.33;5.33;;;;;32.83;26.90;100908.72;5014500;28;46147;-85
2022/04/13 05:12:24;;;;;;;;;5.00;5.00;;;;;32.52;27.03;100873.41;5017165;28;45434;-85
2022/04/13 05:14:54;;;;;;;;;8.00;6.00;;;;;32.63;26.93;100876.25;5014463;28;45456;-84
2022/04/13 05:17:20;;;;;;;;;5.00;5.00;;;;;33.17;26.55;100908.97;5014304;28;46665;-80
2022/04/13 05:19:45;;;;;;;;;6.33;5.67;;;;;33.30;26.68;100952.97;5013025;28;45403;-80
2022/04/13 05:22:10;;;;;;;;;11.33;8.33;;;;;32.86;27.08;100915.84;5025436;28;45394;-84
2022/04/13 05:24:36;;;;;;;;;11.00;8.00;;;;;32.64;27.25;100927.47;4997904;28;45650;-78
2022/04/13 05:27:01;;;;;;;;;6.00;6.00;;;;;32.95;27.50;100941.78;4995233;28;46057;-80
2022/04/13 05:29:27;;;;;;;;;8.33;7.00;;;;;33.21;26.76;100953.63;4994666;28;45532;-80
2022/04/13 05:31:52;;;;;;;;;8.00;7.00;;;;;33.14;26.80;100963.31;4995604;28;45456;-80
2022/04/13 05:34:17;;;;;;;;;7.00;7.00;;;;;33.18;26.73;100924.50;4998114;28;45450;-80
2022/04/13 05:36:43;;;;;;;;;6.00;6.00;;;;;33.34;26.41;100913.25;4997317;28;46250;-80
2022/04/13 05:39:08;;;;;;;;;8.00;8.00;;;;;33.42;26.20;100923.69;4997349;28;45316;-81
2022/04/13 05:41:35;;;;;;;;;7.00;5.67;;;;;33.44;25.81;100905.19;4980212;28;45499;-81
2022/04/13 05:44:00;;;;;;;;;8.67;8.67;;;;;33.48;26.65;100939.72;4982013;28;45579;-81
2022/04/13 05:46:25;;;;;;;;;10.33;9.00;;;;;33.31;27.05;100953.88;5009892;28;45420;-81
2022/04/13 05:48:51;;;;;;;;;8.33;8.33;;;;;33.07;27.03;100923.53;4989649;28;46445;-86
2022/04/13 05:51:16;;;;;;;;;11.33;8.33;;;;;33.12;26.44;100919.47;4998109;28;45355;-85
2022/04/13 05:53:42;;;;;;;;;7.33;7.33;;;;;33.03;26.15;100913.75;4979776;28;45682;-84
2022/04/13 05:56:07;;;;;;;;;9.00;7.67;;;;;33.31;26.23;100948.38;4997719;28;45373;-85
2022/04/13 05:58:32;;;;;;;;;10.33;8.33;;;;;33.15;26.57;100883.50;4980442;28;45556;-82
2022/04/13 06:00:58;;;;;;;;;7.67;7.67;;;;;33.81;26.46;100992.34;4998540;28;45573;-79
2022/04/13 06:03:24;;;;;;;;;7.00;7.00;;;;;33.48;26.29;100920.47;4980075;28;45539;-78
2022/04/13 06:05:51;;;;;;;;;7.33;6.33;;;;;33.84;26.33;100983.88;4997219;28;45492;-78
2022/04/13 06:08:16;;;;;;;;;30.00;24.00;;;;;33.97;26.09;100994.84;4997409;28;45546;-78
2022/04/13 06:10:42;;;;;;;;;19.33;17.67;;;;;33.69;26.14;100952.88;4997716;28;45384;-78
2022/04/13 06:13:07;;;;;;;;;12.67;12.67;;;;;33.90;25.81;100991.66;4997709;28;45434;-78
2022/04/13 06:15:32;;;;;;;;;10.00;7.00;;;;;33.71;26.29;100974.75;4996833;28;45598;-78
2022/04/13 06:17:59;;;;;;;;;9.67;8.33;;;;;33.99;26.27;101012.09;4997061;28;45409;-78
2022/04/13 06:20:24;;;;;;;;;11.67;9.00;;;;;33.79;26.16;100997.97;4997303;28;45464;-78
2022/04/13 06:22:49;;;;;;;;;9.00;7.67;;;;;33.51;26.19;101023.88;4996431;28;45406;-78
2022/04/13 06:25:15;;;;;;;;;10.67;9.00;;;;;33.20;26.52;100957.38;5003667;28;46267;-78
2022/04/13 06:27:41;;;;;;;;;10.00;10.00;;;;;33.65;26.43;100989.84;5016277;28;45431;-78
2022/04/13 06:30:09;;;;;;;;;13.67;10.00;;;;;33.92;26.34;101013.56;5017281;28;45290;-78
2022/04/13 06:32:36;;;;;;;;;12.00;12.00;;;;;33.65;26.41;100978.84;5016671;28;45506;-78
2022/04/13 06:35:04;;;;;;;;;10.67;9.67;;;;;33.81;26.61;101028.13;5015715;28;47923;-78
2022/04/13 06:37:29;;;;;;;;;11.67;10.33;;;;;33.44;26.99;101001.44;5016547;28;45401;-78
2022/04/13 06:39:55;;;;;;;;;11.33;10.00;;;;;33.56;26.49;101029.94;5015648;28;45506;-78
2022/04/13 06:42:22;;;;;;;;;14.00;11.00;;;;;33.41;26.98;100998.94;5017226;28;45407;-78
2022/04/13 06:44:49;;;;;;;;;9.00;9.00;;;;;33.64;26.91;101048.63;5015329;28;48076;-78
2022/04/13 06:47:15;;;;;;;;;10.33;10.33;;;;;32.85;27.26;101006.66;5016908;28;45393;-78
2022/04/13 06:49:40;;;;;;;;;16.33;11.67;;;;;32.73;27.92;101058.75;5015460;28;45561;-78
2022/04/13 06:52:06;;;;;;;;;14.00;11.00;;;;;32.92;28.19;101065.69;5016451;28;49640;-78
2022/04/13 06:54:31;;;;;;;;;13.00;12.33;;;;;32.88;27.61;101058.63;5015364;28;48196;-78
2022/04/13 06:56:56;;;;;;;;;15.00;13.33;;;;;33.12;27.78;101078.91;5015322;28;45681;-78
2022/04/13 06:59:22;;;;;;;;;16.00;12.00;;;;;33.13;27.76;101072.38;5015408;28;45385;-78
2022/04/13 07:01:47;;;;;;;;;14.00;14.00;;;;;33.15;27.44;101080.53;5015194;28;45383;-78
2022/04/13 07:04:13;;;;;;;;;11.00;11.00;;;;;33.18;27.69;101083.06;5016672;28;46446;-78
2022/04/13 07:06:38;;;;;;;;;14.67;12.00;;;;;33.46;27.58;101101.25;5016144;28;45434;-78
2022/04/13 07:09:03;;;;;;;;;13.00;13.00;;;;;33.30;27.24;101098.72;5016803;28;45410;-78
2022/04/13 07:11:29;;;;;;;;;15.67;14.67;;;;;33.12;27.84;101103.63;5016744;28;45399;-78
2022/04/13 07:13:55;;;;;;;;;13.33;12.00;;;;;33.05;27.35;101101.41;5016022;28;46357;-78
2022/04/13 07:16:20;;;;;;;;;14.00;12.33;;;;;33.13;27.73;101121.00;5016445;28;45360;-78
2022/04/13 07:18:46;;;;;;;;;18.00;14.00;;;;;32.96;27.75;101133.19;5016828;28;45311;-78
2022/04/13 07:21:11;;;;;;;;;14.00;11.67;;;;;32.94;27.61;101121.41;5014750;28;45317;-78
2022/04/13 07:23:36;;;;;;;;;21.67;17.00;;;;;32.87;28.16;101114.56;5016181;28;45497;-79
2022/04/13 07:26:02;;;;;;;;;13.33;13.00;;;;;32.88;27.87;101119.97;5016336;28;45342;-79
2022/04/13 07:28:27;;;;;;;;;18.33;18.33;;;;;32.76;27.75;101132.69;5016438;28;45756;-79
2022/04/13 07:30:52;;;;;;;;;18.00;15.67;;;;;33.00;28.11;101148.47;5016153;28;45503;-79
2022/04/13 07:33:18;;;;;;;;;18.33;17.00;;;;;32.56;27.77;101089.19;5014479;28;46986;-79
2022/04/13 07:35:43;;;;;;;;;15.00;12.00;;;;;32.96;27.54;101114.81;5014074;28;45279;-82
2022/04/13 07:38:09;;;;;;;;;21.67;17.67;;;;;32.82;28.02;101096.53;5014042;28;45233;-87
2022/04/13 07:40:34;;;;;;;;;19.67;18.33;;;;;32.52;28.30;101098.63;5017219;28;45721;-85
2022/04/13 07:43:00;;;;;;;;;13.00;13.00;;;;;32.96;27.60;101163.41;5015072;28;48049;-87
2022/04/13 07:45:25;;;;;;;;;19.00;15.00;;;;;32.76;27.41;101082.38;5018984;28;46852;-89
2022/04/13 07:47:51;;;;;;;;;16.67;15.33;;;;;32.83;26.96;101057.09;5014470;28;45379;-90
2022/04/13 07:50:16;;;;;;;;;14.67;13.33;;;;;33.00;27.15;101080.63;5013740;28;45548;-87
2022/04/13 07:52:42;;;;;;;;;18.00;16.00;;;;;33.10;26.97;101052.50;5014009;28;48107;-86
2022/04/13 07:55:12;;;;;;;;;15.33;14.33;;;;;33.46;26.96;101153.50;5016340;28;46014;-84
2022/04/13 07:57:40;;;;;;;;;14.67;14.67;;;;;33.35;27.08;101109.41;5013598;28;45474;-85
2022/04/13 08:00:12;;;;;;;;;12.67;12.67;;;;;33.90;26.40;101155.94;5012688;28;45444;-84
2022/04/13 08:02:39;;;;;;;;;16.67;14.00;;;;;33.18;26.48;101037.22;5012394;28;47435;-83
2022/04/13 08:05:05;;;;;;;;;15.67;14.00;;;;;33.64;26.64;101126.56;5013035;28;45528;-84
2022/04/13 08:07:30;;;;;;;;;14.67;14.00;;;;;33.61;26.76;101128.63;5015192;28;45471;-83
2022/04/13 08:09:55;;;;;;;;;15.33;15.33;;;;;33.82;26.91;101124.31;5013177;28;45554;-83
2022/04/13 08:12:21;;;;;;;;;13.00;13.00;;;;;33.80;26.44;101115.31;5013913;28;46361;-83
2022/04/13 08:14:46;;;;;;;;;18.00;15.67;;;;;33.69;26.43;101091.31;5013962;28;45365;-84
2022/04/13 08:17:15;;;;;;;;;21.00;20.00;;;;;33.43;26.36;101032.72;5016275;28;45796;-84
2022/04/13 08:19:40;;;;;;;;;16.67;13.67;;;;;34.13;26.46;101163.34;5014370;28;45280;-84
2022/04/13 08:22:06;;;;;;;;;20.00;17.67;;;;;33.81;26.34;101125.34;5014319;28;46620;-86
2022/04/13 08:24:31;;;;;;;;;20.00;17.33;;;;;33.47;26.41;101107.63;5012565;28;45445;-83
2022/04/13 08:26:59;;;;;;;;;19.33;19.00;;;;;33.53;26.68;101100.78;5014375;28;45626;-81
2022/04/13 08:29:25;;;;;;;;;17.33;17.33;;;;;33.48;26.90;101125.91;5013051;28;45523;-82
2022/04/13 08:31:51;;;;;;;;;21.00;21.00;;;;;33.68;26.46;101139.09;5013596;28;46051;-81
2022/04/13 08:34:16;;;;;;;;;19.67;18.00;;;;;33.57;26.68;101119.72;5012973;28;45870;-82
2022/04/13 08:36:41;;;;;;;;;22.33;22.33;;;;;33.47;26.96;101132.38;5012127;28;45431;-80
2022/04/13 08:39:13;;;;;;;;;26.33;22.33;;;;;33.16;26.87;101090.53;5013375;28;45412;-80
2022/04/13 08:41:55;;;;;;;;;25.00;22.33;;;;;33.67;26.90;101191.44;5012660;28;46350;-81
2022/04/13 08:44:23;;;;;;;;;19.67;18.33;;;;;33.61;26.45;101197.41;5013786;28;46428;-81
2022/04/13 08:46:55;;;;;;;;;17.67;16.67;;;;;32.88;26.79;101102.59;5012369;28;45483;-82
2022/04/13 08:49:21;;;;;;;;;20.67;18.33;;;;;33.23;27.30;101173.50;5014548;28;45485;-81
2022/04/13 08:51:51;;;;;;;;;15.67;15.67;;;;;32.90;27.15;101112.50;5011975;28;47546;-82
2022/04/13 08:54:23;;;;;;;;;19.67;17.00;;;;;33.65;26.88;101215.47;5015892;28;46023;-82
2022/04/13 08:56:54;;;;;;;;;17.67;15.00;;;;;33.61;26.72;101213.91;5014846;28;46452;-82
2022/04/13 08:59:44;;;;;;;;;18.00;17.33;;;;;33.06;27.24;101155.41;5011823;28;45448;-82
2022/04/13 09:02:44;;;;;;;;;18.00;16.00;;;;;33.17;27.09;101183.03;5012623;28;47564;-82
2022/04/13 09:05:14;;;;;;;;;17.33;16.00;;;;;33.21;27.31;101190.09;5008503;28;45611;-82
2022/04/13 09:07:41;;;;;;;;;19.00;16.00;;;;;32.96;27.54;101164.28;5015625;28;45440;-83
2022/04/13 09:10:10;;;;;;;;;17.00;14.00;;;;;33.03;27.43;101189.50;5016608;28;45297;-82
2022/04/13 09:12:38;;;;;;;;;17.00;16.00;;;;;33.11;26.95;101210.97;5019556;28;46356;-82
2022/04/13 09:15:05;;;;;;;;;17.00;13.67;;;;;32.73;27.39;101185.13;5031514;28;45893;-82
2022/04/13 09:17:30;;;;;;;;;15.00;12.33;;;;;32.46;27.60;101169.47;5017335;28;45365;-82
2022/04/13 09:19:57;;;;;;;;;13.67;12.33;;;;;33.28;27.38;101254.69;5016969;28;45462;-82
2022/04/13 09:22:23;;;;;;;;;14.00;14.00;;;;;33.22;27.81;101256.94;5014489;28;47327;-83
2022/04/13 09:24:50;;;;;;;;;10.33;10.33;;;;;32.63;27.48;101192.16;5015028;28;45556;-83
2022/04/13 09:27:16;;;;;;;;;14.00;13.00;;;;;32.74;27.55;101241.84;5014977;28;45322;-83
2022/04/13 09:29:42;;;;;;;;;13.00;13.00;;;;;32.76;27.42;101206.88;5015384;28;45187;-83
2022/04/13 09:32:08;;;;;;;;;13.67;12.33;;;;;33.08;27.89;101247.78;5015489;28;45943;-82
2022/04/13 09:34:34;;;;;;;;;14.33;13.00;;;;;32.92;27.51;101212.22;5015317;28;46153;-84
2022/04/13 09:37:00;;;;;;;;;14.00;13.00;;;;;33.24;27.47;101255.88;5019990;28;45610;-83
2022/04/13 09:39:26;;;;;;;;;12.00;11.67;;;;;32.79;27.47;101201.19;5014235;28;45725;-83
2022/04/13 09:41:52;;;;;;;;;13.00;13.00;;;;;32.74;27.59;101184.13;5015564;28;45604;-82
2022/04/13 09:44:20;;;;;;;;;11.33;10.33;;;;;32.57;27.19;101157.75;5014967;28;45510;-82
2022/04/13 09:46:46;;;;;;;;;10.33;9.00;;;;;33.21;27.10;101241.41;5016438;28;45585;-82
2022/04/13 09:49:12;;;;;;;;;13.00;11.67;;;;;33.16;26.95;101201.41;5010990;28;45634;-83
2022/04/13 09:51:39;;;;;;;;;11.67;9.67;;;;;32.78;26.77;101190.28;5016066;28;46212;-85
2022/04/13 09:54:12;;;;;;;;;11.33;11.33;;;;;33.02;27.28;101184.09;5018343;28;45418;-85
2022/04/13 09:56:42;;;;;;;;;14.00;13.00;;;;;33.51;27.11;101269.56;5013458;28;45497;-85
2022/04/13 09:59:07;;;;;;;;;10.00;9.33;;;;;33.05;26.85;101209.50;5014879;28;45425;-84
2022/04/13 10:01:37;;;;;;;;;10.33;10.33;;;;;33.48;26.81;101258.78;5014245;28;46234;-85
2022/04/13 10:04:03;;;;;;;;;10.00;9.00;;;;;33.10;27.10;101179.81;5011508;28;46513;-86
2022/04/13 10:06:35;;;;;;;;;10.00;10.00;;;;;33.15;27.04;101193.25;5015209;28;45504;-88
2022/04/13 10:09:05;;;;;;;;;12.67;10.00;;;;;33.45;27.28;101278.28;5017479;28;45792;-87
2022/04/13 10:11:34;;;;;;;;;10.67;10.00;;;;;32.98;26.98;101222.81;5015500;28;47089;-88
2022/04/13 10:14:05;;;;;;;;;10.33;9.00;;;;;33.33;26.98;101230.50;5016382;28;46460;-86
2022/04/13 10:16:34;;;;;;;;;8.00;7.00;;;;;33.05;26.43;101171.00;5017284;28;45545;-85
2022/04/13 10:19:04;;;;;;;;;9.00;8.00;;;;;32.39;27.07;101094.00;5016739;28;45360;-86
2022/04/13 10:21:43;;;;;;;;;11.00;8.67;;;;;32.22;27.21;101094.22;5016061;28;45481;-85
2022/04/13 10:24:33;;;;;;;;;9.67;8.33;;;;;32.94;27.53;101195.59;5015093;28;45711;-84
2022/04/13 10:27:12;;;;;;;;;8.33;8.33;;;;;33.19;26.64;101241.53;5014994;28;45396;-83
2022/04/13 10:29:40;;;;;;;;;8.00;8.00;;;;;33.29;26.86;101253.72;5015772;28;45574;-85
2022/04/13 10:32:06;;;;;;;;;8.00;7.00;;;;;33.44;27.32;101264.63;5015222;28;45609;-84
2022/04/13 10:34:33;;;;;;;;;9.67;9.00;;;;;32.65;27.68;101182.84;5017859;28;45453;-84
2022/04/13 10:36:59;;;;;;;;;10.33;9.00;;;;;33.09;27.01;101190.94;5018310;28;45453;-89
2022/04/13 10:39:25;;;;;;;;;11.00;10.00;;;;;33.09;26.83;101219.28;5021263;28;45510;-90
2022/04/13 10:41:50;;;;;;;;;10.33;9.00;;;;;32.74;26.98;101180.50;5020074;28;46872;-93
2022/04/13 10:44:41;;;;;;;;;9.00;9.00;;;;;33.08;27.28;101212.06;5015586;28;45467;-89
2022/04/13 10:47:08;;;;;;;;;10.00;10.00;;;;;33.17;27.32;101238.91;5009668;28;45628;-92
2022/04/13 10:50:00;;;;;;;;;8.33;7.67;;;;;33.39;26.51;101275.97;5034278;28;45423;-86
2022/04/13 10:53:03;;;;;;;;;10.00;9.00;;;;;33.32;26.25;101269.13;5014670;28;46440;-87
2022/04/13 10:55:33;;;;;;;;;7.67;7.67;;;;;33.03;26.74;101227.09;5014274;28;45399;-84
2022/04/13 10:58:39;;;;;;;;;9.00;9.00;;;;;33.15;26.92;101235.38;5030199;28;45536;-84
2022/04/13 11:01:11;;;;;;;;;8.67;8.67;;;;;33.05;27.06;101220.47;5014970;28;45443;-85
2022/04/13 11:03:38;;;;;;;;;11.67;10.33;;;;;33.18;27.05;101228.78;5014849;28;46440;-84
2022/04/13 11:06:08;;;;;;;;;9.33;8.33;;;;;33.79;26.67;101261.28;5015054;28;45470;-85
2022/04/13 11:08:57;;;;;;;;;6.67;6.00;;;;;33.15;26.57;101259.22;5014075;28;45528;-85
2022/04/13 11:11:26;;;;;;;;;4.67;4.67;;;;;32.85;26.27;101221.00;5017051;28;45371;-84
2022/04/13 11:13:51;;;;;;;;;5.67;5.67;;;;;32.90;26.18;101268.25;5013562;28;46989;-86
2022/04/13 11:16:19;;;;;;;;;7.00;7.00;;;;;32.67;26.66;101240.44;5017112;28;45383;-84
2022/04/13 11:19:06;;;;;;;;;7.00;5.00;;;;;33.39;26.97;101261.31;5019656;28;45432;-85